最近访问的吧在这里
阅读
评论
标题
作者
发表日期
更新时间
- 332 0 [财经评论吧] 中国最大经济特区 终于要站到开放“一线” 东方财富资讯君 07-2307-23 23:05
- 147 0 [日经225吧] 又要新高了 明眸皓齿de葡萄 07-2307-23 23:05
- 153 0 [唯万密封吧] 拉萨团结路!!!!!!明天要团结一致,我先走 恒铄资本 07-2307-23 23:05
- 649 3 [道琼斯吧] 从周K线上来看也像是一个大双头K线 金融裂变2024 07-2307-23 23:05
- 178 1 [长盛轴承吧] 今天跌的莫名其妙,不应该接水电的资金抢地位吗 利好银行丶 07-2307-23 23:05
- 178 0 [涛涛车业吧] 中美开启贸易谈判利好涛涛车业。涛涛对美国出口 梦想成真88866 07-2307-23 23:05
- 194 0 [棕榈油吧] 这种期货真的无语,你做空跌2个点都困难,一反 股友kqjE3I 07-2307-23 23:05
- 164 0 [天阳科技吧] 差不多得了整个跌停您有点矫情 股友21Q61Z9035 07-2307-23 23:05
- 183 0 [ST亚光吧] 放烟雾也有一段时间了,是不是得有结果了? 金生之爱 07-2307-23 23:05
- 221 1 [西藏旅游吧] 这个票真的热点太多,利好太多。个人仔细去分析 专心的袁朗琴 07-2307-23 23:05
- 202 1 [温州宏丰吧] 别讲这讲那,讲啥都没用,只不过站岗的安慰自己 冀石独行侠 07-2307-23 23:05
- 171 1 [焦煤吧] 吓死我了,平了,留一点看看明天反应 复活吧我的股票 07-2307-23 23:05
- 164 1 [纸浆吧] 做多的朋友坐稳扶好了,剧烈颠簸之后的下一站是 胡子比头发多 07-2307-23 23:05
- 199 1 [诺普信吧] 抖音 股友63p6C88057 07-2307-23 23:05
- 228 1 [光库科技吧] 要突破了 天财天 07-2307-23 23:05
- 1682 1 [上证指数吧] 2025.7.23上证指数日线均线多头排列,上涨常态 不炒就分析 07-2307-23 23:05
- 165 2 [巨力索具吧] 明天我的养老金到账,到时看我的表演!!! 每天赚点小菜钱 07-2307-23 23:05
- 939 2 [宏润建设吧] [图片] 思南摩尔 07-2307-23 23:05
- 554 1 [宝胜股份吧] 本来以为卖飞了 阳光DY鑫家菌 07-2307-23 23:05
- 316 5 [德生科技吧] 全仓杀入德生科技我要发大财我们一个群所有散户 局座8341 07-2307-23 23:05
- 210 7 [海创药业-U吧] 一个抄袭还不敢承认的人,跟小偷有什么区别,值 股友FENqGB5005 07-2307-23 23:05
- 156 0 [上纬新材吧] 没重点监管什么意思呢, 相由心生之火线 07-2307-23 23:05
- 184 0 [股市实战吧] 四维图新值得拥有 高枕无忧一路长红 07-2307-23 23:05
- 134 1 [易方达竞争优势企业混合A吧] 基金净值问题 AI回答小助理 07-2307-23 23:05
- 172 1 [中海能源策略混合吧] #晒收益# 基民95L2505Y19 07-2307-23 23:05
- 493 3 [立方退吧] 上周的预期 难钓的鱼 07-2307-23 23:05
- 181 0 [拼多多吧] 把5月底跌的都收回来了,看来业绩预期应该挺不 股友O7v9732720 07-2307-23 23:05
- 133 0 [通用动力吧] Quarterly report [Sections 13 or 15(d)] 通用动力资讯 07-2307-23 23:05
- 53 0 [M&G CREDIT INCOME INVESTMENT TR吧] Holdings in Company M&G CREDIT INCOM资讯 07-2307-23 23:05
- 171 0 [海南机场吧] 海南板块完了全完了 富贵万能的神 07-2307-23 23:05
- 157 0 [豆一吧] 3654精准止盈,爽 吉祥广进地祖千秋 07-2307-23 23:05
- 362 0 [马可数字科技吧] 一共5000万美元,马可出了600万美元,坐等收钱 昊昊挣毛线 07-2307-23 23:05
- 164 0 [*ST纳川吧] 跌到1.8吧 赚钱才是硬道理啊 07-2307-23 23:05
- 47 0 [LUCECO PLC ORD GBP0.0005吧] Holding(s) in Company LUCECO PLC ORD G资讯 07-2307-23 23:05
- 58 0 [培生吧] Director/PDMR Shareholding 培生资讯 07-2307-23 23:05
- 164 0 [北大荒吧] 明天开始又得持续跌 欢快的王舒茜 07-2307-23 23:05
- 158 0 [九典制药吧] 熊猫烧香 后山堂主 07-2307-23 23:05
- 168 0 [中兴通讯吧] 碰到趋势线的下轨了,要反弹 股市探花 07-2307-23 23:05
- 159 0 [玻璃吧] 今晚这几个品种收盘,走势像个墓碑! 雁向北飞 07-2307-23 23:05
- 155 0 [中集车辆吧] 明天带量过10 木然的看法 07-2307-23 23:05
- 162 0 [海南发展吧] 今天11.53进的,闷杀,短期估计完犊子了,以后 大体格子 07-2307-23 23:05
- 1689 0 [财经评论吧] 国内期货主力合约涨跌互现 焦煤涨超4% 东方财富资讯君 07-2307-23 23:05
- 208 5 [友阿股份吧] 明天长阳 灵巧的赵柏 07-2307-23 23:05
- 198 6 [宁新新材(已切换)吧] 16.98破了,那就看15.25附近了,要是还不行,那 稳定收益长期盈利 07-2307-23 23:05
- 3168 11 [金田股份吧] 今天缩量回踩五日线,洗盘结束,明天大盘正常的 龙飞凤唔 07-2307-23 23:05
- 4413 15 [鹏华新兴产业混合A吧] 鹏华 可转债摊大饼 07-2307-23 23:05
- 156 0 [外汇吧] 消费板块 主力都是我的c 07-2307-23 23:04
- 176 1 [三一重工吧] 机构,量化,稳根 自强的斐奥娜 07-2307-23 23:04
- 401 2 [特变电工吧] 反内卷多晶硅、煤化工、雅江墨脱电设备核心受益 我唔系彭于晏 07-2307-23 23:04
- 608 3 [雅下水电概念吧] 周三冲高回落,周四将会怎么走? a小美123强者恒强 07-2307-23 23:04
- 178 0 [中源协和吧] 仙人指路确定了吧? 全红吉 07-2307-23 23:04
- 177 0 [金钼股份吧] 尾盘放量滞涨不是什么好事 小猴总继续霍 07-2307-23 23:04
- 166 0 [鸣志电器吧] 明天回调下方颈线,补了缺口,启动。 稳健的菜小白 07-2307-23 23:04
- 180 0 [纯碱吧] 期货属于高度控盘,就是看着是上涨行情回调的时 万馥善良 07-2307-23 23:04
- 151 0 [中联重科吧] 该拉不拉,主力在跑路。明天再不拉,那就跑了 金融狙击奇才 07-2307-23 23:04
- 174 0 [东方电气吧] 明天全部闷杀20个点 基民3nL5675312 07-2307-23 23:04
- 162 1 [铁建重工吧] 收盘就顶板挂单几天都没搞进去!!!这么稳的吗 翻过右侧高峰 07-2307-23 23:04
- 177 1 [*ST天茂吧] 为什么挂跌停的没买进去 堆金大展de宁荣荣 07-2307-23 23:04
- 875 1 [优必选吧] 难道今天又选错了 建德饼饼 07-2307-23 23:04
- 256 3 [富乐德吧] 你们在讲什么。上市他也卖不掉。这不是预期内。 老板再来十个涨停 07-2307-23 23:04
- 185 3 [嘉元科技吧] 嘉园相对坚挺的原因,和转债有关,股价不拉上去 收废品的人 07-2307-23 23:04
- 179 4 [申万宏源吧] 这个可以到6块 山59698 07-2307-23 23:04
- 168 0 [时代出版吧] 这票算不算破净? 搶到手跟哥走 07-2307-23 23:04
- 204 1 [中文在线吧] 白天说过了,等待吃肉 体育生爱吃牛肉l8 07-2307-23 23:04
- 5283 17 [易普力吧] 易普力(002096)龙虎榜数据(07-23) 易普力资讯 07-2307-23 23:04
- 220 3 [ST诺泰吧] 作为一个诺和泰的长期使用者,不仅减了肥还人更 基民3l6KXG 07-2307-23 23:04
- 455 7 [中粮资本吧] 公司香港旗下的中粮资产管理(国际)有限公司目 中粮资本股友 07-1107-23 23:04
- 185 0 [麦克奥迪吧] 好不容易抓住水电站的尾巴,然后被人家甩飞了 仧乆杰 07-2307-23 23:04
- 558 6 [华钰矿业吧] 华钰矿业:华钰矿业关于召开2025年第二次临时股 华钰矿业资讯 07-2307-23 23:04
- 172 0 [小鹏集团吧] 骗炮行情 Havice 07-2307-23 23:04
- 170 0 [*ST金科吧] 看到大家疯了,我就确认这就是底部了 基民0908X22H65 07-2307-23 23:04
- 499 0 [南山智尚吧] 央视:工业机器人爆单有企业订单排到11月。央视 股友2080u78H58 07-2307-23 23:04
- 230 0 [隧道股份吧] 中国人寿召开上半年工作会议:有力落实中长期资 顺势而为灬 07-2307-23 23:04
- 189 3 [欣灵电气吧] 完了,明天要大跌 二线柚子 07-2307-23 23:04
- 251 6 [苏州科达吧] 尾盘集合竞价啥意思?一片红,头一回啊 股友51703CI926 07-2307-23 23:04
- 160 1 [沪银吧] 双开期权了,随便搞吧 疯笑而过 07-2307-23 23:04
- 147 0 [黄金/美元吧] 手上低位多减仓的没走完的防守就带保本就行了, 李岚Lilan2507 07-2307-23 23:04
- 174 0 [贝瑞基因吧] 明天一字板 专治B崽 07-2307-23 23:04
- 191 0 [湖北宜化吧] 煤炭绿了 我的宜化怎么办 07-2307-23 23:04
- 229 1 [豆粕吧] 09合约小时K线非常健康,暂时没有改变向北的方 AAA向前冲AAA 07-2307-23 23:04
- 141 14 [中粮资本吧] 今天我赌不会跌破12元92分 割庄天尊 07-1807-23 23:04
- 152 2 [沃尔核材吧] 还是股东太多了,24万的股东,吓死人了 和气为富之傅红雪 07-2307-23 23:04
- 104 1 [紫天退吧] 让这样的公司退市,到底坑了谁?这么好的净资产 涨跌源于跌涨 07-2307-23 23:04
- 196 3 [格尔软件吧] 今天谁被洗下车了?我已经一周没操作了,不想左 桀骜不驯的谷心宇 07-2307-23 23:04
- 135 2 [特变电工吧] 套住啦吗,各位 瑶瑶JieJie 07-2307-23 23:04
- 86 0 [金信诺吧] 英伟达和安费诺都涨了。小金子也该启动了。 势在必得789 07-2307-23 23:04
- 109 0 [Cytokinetics Inc吧] Statement of changes in beneficial ownership Cytokinetics Inc资讯 07-2307-23 23:04
- 171 0 [正虹科技吧] 反内卷,要来一波了 我想张婷想疯了 07-2307-23 23:04
48小时股吧热门文章排行
标题阅读/评论
- [汇添富中债7-10年国开债E吧] 注意!债基加仓点已至!43745/109
- [汇添富中债7-10年国开债E吧] 债市“牛转熊”?不不不,只是在回调蓄力罢了!42843/115
- [汇添富中债7-10年国开债E吧] 债市走向十足路口,是加仓还是撤退?42813/130
- [汇添富港股红利ETF联接C吧] 市场持续震荡,港股高股息一枝独秀!42716/124
- [半导体ETF鹏华吧] 苹果放开芯片“权限”,英伟达二季度财报披露在即,半导体进入配置期!40609/112
- [工商银行吧] 银行股跌了五年,股息率曾达到8%,经过中金汇金公司的增持到现在差不多2年,点燃了21022/135
- [好上好吧] 各位股友中午好[抱拳][抱拳]今日大盘继续弱势震荡,何时才是一个头呢?今日早盘西12165/121
- [格力电器吧] 给你打一个最简单的例子,十年前你买了格力30每股,持股十年每年分红三块,分红后没11355/49
- [深圳华强吧] 各位股友中午好[抱拳][抱拳][抱拳]大盘继续弱势震荡,我觉得没有必要开新仓了,9350/111
- [上证指数吧] 早上好,各位兄弟们[加油][加油][加油]9248/150
- [金元顺安元启灵活配置混合吧] 0827:今天债市暴雨,不妙!股债双双陨落?还能买啥7903/2
- [汇添富港股红利ETF联接C吧] 刚看了下,发现今天港股通高股息全市场涨幅第一7718/13
- [汇添富港股红利ETF联接C吧] 今个大A又是震荡的一天,但港股高股息涨幅第一7642/9
- [金太阳吧] 早盘计划烽火电子山西高速锦江在线今天就不格局了,等待冲高就走。新疆交建预计还有一7597/89
- [汇添富港股红利ETF联接A吧] 港股这两天表现还不错,尤其港股高股息7557/10
一周股吧热门文章排行
标题阅读/评论
- [汇添富中证主要消费ETF联接A吧] 3年赚了近50%!他的投资秘诀究竟是啥?179436/17
- [汇添富中债7-10年国开债E吧] 波动之下,债基依旧“热辣滚烫”!75174/113
- [汇添富中债7-10年国开债E吧] 投资颠簸前行,债基保驾护航!74721/117
- [汇添富港股红利ETF联接C吧] A股高股息再起,但港股或更具性价比!74512/118
- [汇添富港股红利ETF联接C吧] A股行情持续低迷,不妨看看港股高股息!74370/134
- [半导体ETF鹏华吧] 复苏春风频吹,半导体加仓点显现!61707/115
- [武商集团吧] 摩根大通预测A股年内要到2300点,所以目前的股市不是大底,反而是大顶。去年摩根60723/29
- [半导体ETF鹏华吧] 苹果发新机,“黑猴”来助力,半导体涨势渐起!54867/110
- [基金动态吧] 一起来分享#看好科技的理由#,有机会瓜分1000元京东卡54780/113
- [半导体ETF鹏华吧] 苹果新机发售在即,国产游戏持续火热,半导体复苏“曙光”初现!44098/112
- [汇添富中债7-10年国开债E吧] 注意!债基加仓点已至!43745/109
- [富国中证消费电子主题ETF发起式联接C吧] 降息即将来临,A股哪个板块将脱颖而出?43744/110
- [汇添富中债7-10年国开债E吧] 债市“牛转熊”?不不不,只是在回调蓄力罢了!42843/115
- [汇添富中债7-10年国开债E吧] 债市走向十足路口,是加仓还是撤退?42813/130
- [汇添富港股红利ETF联接C吧] 市场持续震荡,港股高股息一枝独秀!42716/124
温馨提示: 1.根据《证券法》规定,禁止编造、传播虚假信息或者误导性信息,扰乱证券市场;2.用户在本社区发表的所有资料、言论等仅代表个人观点,与本网站立场无关,不对您构成任何投资建议。用户应基于自己的独立判断,自行决定证券投资并承担相应风险。